createdAt,value
2022-12-25T00:01:50.926Z,31.27
2022-12-25T00:04:17.527Z,29.40
2022-12-25T00:06:44.086Z,37.37
2022-12-25T00:09:10.674Z,31.73
2022-12-25T00:11:37.804Z,16.40
2022-12-25T00:14:04.356Z,15.70
2022-12-25T00:16:30.977Z,24.13
2022-12-25T00:19:01.263Z,15.13
2022-12-25T00:21:28.579Z,130.77
2022-12-25T00:23:57.161Z,163.93
2022-12-25T00:26:26.265Z,31.57
2022-12-25T00:28:57.640Z,34.23
2022-12-25T00:31:25.076Z,49.33
2022-12-25T00:33:52.512Z,230.13
2022-12-25T00:36:21.595Z,207.10
2022-12-25T00:38:48.323Z,205.43
2022-12-25T00:41:18.268Z,169.10
2022-12-25T00:43:44.854Z,222.97
2022-12-25T00:46:12.842Z,270.67
2022-12-25T00:48:40.097Z,192.50
2022-12-25T00:51:10.471Z,281.93
2022-12-25T00:53:37.223Z,274.30
2022-12-25T00:56:07.014Z,134.57
2022-12-25T00:58:34.540Z,354.60
2022-12-25T01:01:02.717Z,164.03
2022-12-25T01:03:29.585Z,137.30
2022-12-25T01:06:07.113Z,107.77
2022-12-25T01:08:35.983Z,148.73
2022-12-25T01:11:08.810Z,49.03
2022-12-25T01:13:37.102Z,28.00
2022-12-25T01:16:08.829Z,32.97
2022-12-25T01:18:36.128Z,28.87
2022-12-25T01:21:07.623Z,28.67
2022-12-25T01:23:34.441Z,23.60
2022-12-25T01:26:09.635Z,26.27
2022-12-25T01:28:37.135Z,17.57
2022-12-25T01:31:04.609Z,26.80
2022-12-25T01:33:31.657Z,17.37
2022-12-25T01:35:58.641Z,28.93
2022-12-25T01:38:25.613Z,34.17
2022-12-25T01:40:52.177Z,24.23
2022-12-25T01:43:28.601Z,20.30
2022-12-25T01:45:55.520Z,19.70
2022-12-25T01:48:27.707Z,19.27
2022-12-25T01:50:58.925Z,17.73
2022-12-25T01:53:26.561Z,36.27
2022-12-25T01:55:58.714Z,21.30
2022-12-25T01:58:25.696Z,17.67
2022-12-25T02:00:52.342Z,27.07
2022-12-25T02:03:19.834Z,20.07
2022-12-25T02:05:48.130Z,27.93
2022-12-25T02:08:18.308Z,32.53
2022-12-25T02:10:45.442Z,24.90
2022-12-25T02:13:15.639Z,22.87
2022-12-25T02:15:57.958Z,33.83
2022-12-25T02:18:45.964Z,25.80
2022-12-25T02:21:37.615Z,21.80
2022-12-25T02:24:36.094Z,25.57
2022-12-25T02:27:41.383Z,23.13
2022-12-25T02:30:10.399Z,24.97
2022-12-25T02:32:46.992Z,22.57
2022-12-25T02:35:28.845Z,33.97
2022-12-25T02:38:01.182Z,30.00
2022-12-25T02:40:33.291Z,28.77
2022-12-25T02:43:22.973Z,30.30
2022-12-25T02:46:30.232Z,30.83
2022-12-25T02:49:19.687Z,25.07
2022-12-25T02:52:13.168Z,18.40
2022-12-25T02:55:03.949Z,22.60
2022-12-25T02:57:58.760Z,25.50
2022-12-25T03:00:44.202Z,22.93
2022-12-25T03:03:33.331Z,21.70
2022-12-25T03:06:22.054Z,19.13
2022-12-25T03:08:53.610Z,23.53
2022-12-25T03:11:32.523Z,28.57
2022-12-25T03:14:23.656Z,20.37
2022-12-25T03:16:55.255Z,18.70
2022-12-25T03:19:52.732Z,27.60
2022-12-25T03:22:47.801Z,32.53
2022-12-25T03:25:34.985Z,25.13
2022-12-25T03:28:02.577Z,28.00
2022-12-25T03:31:11.977Z,26.97
2022-12-25T03:34:28.803Z,19.13
2022-12-25T03:37:29.708Z,21.27
2022-12-25T03:40:35.886Z,21.90
2022-12-25T03:43:34.202Z,26.00
2022-12-25T03:46:24.124Z,26.67
2022-12-25T03:49:18.847Z,22.00
2022-12-25T03:52:07.323Z,29.90
2022-12-25T03:54:55.529Z,27.63
2022-12-25T03:57:40.776Z,28.47
2022-12-25T04:00:27.307Z,36.00
2022-12-25T04:03:12.654Z,22.90
2022-12-25T04:05:57.967Z,27.43
2022-12-25T04:08:43.190Z,28.27
2022-12-25T04:11:28.540Z,24.40
2022-12-25T04:14:13.995Z,28.43
2022-12-25T04:16:59.240Z,29.13
2022-12-25T04:19:44.823Z,25.73
2022-12-25T04:22:29.968Z,19.47
2022-12-25T04:25:15.263Z,28.83
2022-12-25T04:28:00.460Z,20.90
2022-12-25T04:30:46.121Z,21.43
2022-12-25T04:33:31.527Z,33.67
2022-12-25T04:36:10.658Z,29.77
2022-12-25T04:38:38.538Z,35.77
2022-12-25T04:41:05.139Z,18.90
2022-12-25T04:43:31.909Z,21.83
2022-12-25T04:46:01.520Z,20.70
2022-12-25T04:48:30.157Z,31.73
2022-12-25T04:50:56.821Z,24.53
2022-12-25T04:53:24.674Z,26.77
2022-12-25T04:56:01.176Z,32.10
2022-12-25T04:58:27.734Z,22.90
2022-12-25T05:00:54.901Z,30.47
2022-12-25T05:03:21.737Z,25.53
2022-12-25T05:05:48.580Z,26.00
2022-12-25T05:08:15.098Z,28.27
2022-12-25T05:10:41.698Z,24.83
2022-12-25T05:13:08.289Z,26.53
2022-12-25T05:15:34.934Z,29.57
2022-12-25T05:18:01.956Z,20.73
2022-12-25T05:20:31.229Z,24.10
2022-12-25T05:23:01.275Z,23.60
2022-12-25T05:25:28.012Z,22.20
2022-12-25T05:27:55.130Z,29.53
2022-12-25T05:30:21.671Z,24.63
2022-12-25T05:32:48.543Z,17.23
2022-12-25T05:35:15.577Z,20.47
2022-12-25T05:37:42.120Z,19.93
2022-12-25T05:40:09.264Z,28.43
2022-12-25T05:42:36.516Z,22.67
2022-12-25T05:45:03.109Z,20.03
2022-12-25T05:47:29.697Z,24.30
2022-12-25T05:49:56.217Z,31.57
2022-12-25T05:52:22.723Z,27.83
2022-12-25T05:54:49.252Z,25.50
2022-12-25T05:57:16.025Z,25.17
2022-12-25T05:59:42.545Z,20.27
2022-12-25T06:02:09.162Z,23.97
2022-12-25T06:04:36.025Z,31.33
2022-12-25T06:07:03.325Z,23.67
2022-12-25T06:09:29.839Z,16.57
2022-12-25T06:11:56.596Z,19.77
2022-12-25T06:14:24.129Z,14.33
2022-12-25T06:16:52.632Z,20.17
2022-12-25T06:19:22.216Z,19.63
2022-12-25T06:21:53.397Z,16.90
2022-12-25T06:24:21.559Z,30.53
2022-12-25T06:26:48.477Z,24.70
2022-12-25T06:29:15.139Z,20.63
2022-12-25T06:31:42.103Z,15.17
2022-12-25T06:34:08.749Z,32.03
2022-12-25T06:36:37.630Z,31.83
2022-12-25T06:39:04.596Z,19.00
2022-12-25T06:41:31.316Z,15.47
2022-12-25T06:43:59.955Z,17.17
2022-12-25T06:46:28.805Z,20.07
2022-12-25T06:48:55.637Z,24.50
2022-12-25T06:51:25.114Z,25.23
2022-12-25T06:53:52.599Z,20.90
2022-12-25T06:56:22.069Z,25.87
2022-12-25T06:58:53.607Z,19.80
2022-12-25T07:01:23.500Z,23.73
2022-12-25T07:03:54.374Z,13.73
2022-12-25T07:06:21.545Z,27.47
2022-12-25T07:08:48.409Z,19.50
2022-12-25T07:11:15.414Z,23.20
2022-12-25T07:13:42.283Z,22.50
2022-12-25T07:16:10.875Z,12.40
2022-12-25T07:18:37.473Z,27.07
2022-12-25T07:21:09.169Z,14.47
2022-12-25T07:23:36.274Z,16.10
2022-12-25T07:26:03.478Z,17.37
2022-12-25T07:28:31.195Z,15.23
2022-12-25T07:31:02.541Z,18.57
2022-12-25T07:33:29.840Z,22.27
2022-12-25T07:35:56.401Z,20.83
2022-12-25T07:38:23.133Z,17.23
2022-12-25T07:40:50.040Z,29.80
2022-12-25T07:43:16.858Z,20.50
2022-12-25T07:45:43.939Z,17.70
2022-12-25T07:48:16.469Z,28.93
2022-12-25T07:50:43.724Z,33.23
2022-12-25T07:53:10.379Z,24.17
2022-12-25T07:55:37.257Z,24.60
2022-12-25T07:58:03.773Z,20.90
2022-12-25T08:00:33.825Z,18.80
2022-12-25T08:03:00.635Z,18.87
2022-12-25T08:05:27.437Z,20.50
2022-12-25T08:07:57.789Z,18.13
2022-12-25T08:10:25.200Z,25.70
2022-12-25T08:12:52.064Z,15.67
2022-12-25T08:15:18.604Z,21.27
2022-12-25T08:17:45.210Z,19.83
2022-12-25T08:20:12.493Z,16.10
2022-12-25T08:22:39.493Z,18.40
2022-12-25T08:25:06.252Z,17.77
2022-12-25T08:27:34.079Z,18.90
2022-12-25T08:30:00.612Z,25.40
2022-12-25T08:32:27.162Z,18.73
2022-12-25T08:34:53.659Z,18.57
2022-12-25T08:37:20.592Z,21.87
2022-12-25T08:39:47.111Z,24.10
2022-12-25T08:42:15.191Z,11.70
2022-12-25T08:44:41.713Z,21.63
2022-12-25T08:47:08.236Z,13.33
2022-12-25T08:49:34.768Z,20.70
2022-12-25T08:52:01.467Z,15.63
2022-12-25T08:54:28.494Z,12.67
2022-12-25T08:57:02.279Z,14.47
2022-12-25T08:59:29.770Z,20.20
2022-12-25T09:01:57.185Z,21.73
2022-12-25T09:04:23.827Z,20.50
2022-12-25T09:06:51.082Z,22.63
2022-12-25T09:09:17.661Z,15.27
2022-12-25T09:11:44.203Z,15.90
2022-12-25T09:14:10.818Z,16.60
2022-12-25T09:16:37.352Z,14.70
2022-12-25T09:19:03.911Z,12.70
2022-12-25T09:21:30.437Z,19.53
2022-12-25T09:23:56.959Z,22.10
2022-12-25T09:26:23.481Z,23.80
2022-12-25T09:28:52.442Z,31.87
2022-12-25T09:31:20.817Z,16.77
2022-12-25T09:33:48.456Z,11.97
2022-12-25T09:36:15.025Z,17.00
2022-12-25T09:38:41.519Z,18.93
2022-12-25T09:41:50.300Z,18.63
2022-12-25T09:44:22.466Z,13.60
2022-12-25T09:46:53.758Z,12.20
2022-12-25T09:49:32.254Z,14.13
2022-12-25T09:52:05.156Z,8.27
2022-12-25T09:54:46.868Z,15.10
2022-12-25T09:57:15.281Z,18.43
2022-12-25T09:59:43.449Z,17.83
2022-12-25T10:02:28.758Z,16.37
2022-12-25T10:05:10.295Z,11.93
2022-12-25T10:07:51.417Z,17.13
2022-12-25T10:10:31.722Z,6.83
2022-12-25T10:13:01.130Z,17.53
2022-12-25T10:15:39.248Z,8.43
2022-12-25T10:18:47.894Z,14.83
2022-12-25T10:21:18.114Z,13.37
2022-12-25T10:23:50.456Z,11.40
2022-12-25T10:26:19.814Z,14.30
2022-12-25T10:28:53.431Z,14.67
2022-12-25T10:31:25.883Z,23.93
2022-12-25T10:33:53.951Z,11.90
2022-12-25T10:36:26.077Z,10.03
2022-12-25T10:38:53.308Z,7.40
2022-12-25T10:41:34.173Z,13.03
2022-12-25T10:44:01.189Z,10.20
2022-12-25T10:46:29.690Z,9.37
2022-12-25T10:48:59.370Z,13.70
2022-12-25T10:51:33.964Z,14.63
2022-12-25T10:54:20.971Z,14.23
2022-12-25T10:57:00.664Z,7.60
2022-12-25T10:59:29.711Z,8.17
2022-12-25T11:02:04.032Z,17.30
2022-12-25T11:04:35.647Z,9.83
2022-12-25T11:07:07.439Z,24.13
2022-12-25T11:09:34.501Z,13.23
2022-12-25T11:12:01.433Z,30.23
2022-12-25T11:14:29.075Z,18.97
2022-12-25T11:16:55.684Z,20.93
2022-12-25T11:19:32.004Z,20.30
2022-12-25T11:22:01.305Z,15.27
2022-12-25T11:24:30.293Z,18.43
2022-12-25T11:27:00.317Z,16.03
2022-12-25T11:29:49.124Z,9.50
2022-12-25T11:32:28.735Z,16.57
2022-12-25T11:34:56.452Z,18.57
2022-12-25T11:37:48.261Z,15.87
2022-12-25T11:40:18.126Z,10.23
2022-12-25T11:42:52.874Z,17.03
2022-12-25T11:45:36.379Z,12.73
2022-12-25T11:48:18.049Z,9.33
2022-12-25T11:51:02.351Z,10.70
2022-12-25T11:53:39.627Z,14.97
2022-12-25T11:56:10.216Z,9.50
2022-12-25T11:58:52.440Z,17.83
2022-12-25T12:01:33.340Z,19.27
2022-12-25T12:04:02.896Z,19.87
2022-12-25T12:06:46.267Z,13.90
2022-12-25T12:09:44.144Z,15.50
2022-12-25T12:12:19.560Z,13.57
2022-12-25T12:15:08.877Z,19.00
2022-12-25T12:17:35.509Z,21.40
2022-12-25T12:20:33.619Z,15.10
2022-12-25T12:23:03.704Z,12.60
2022-12-25T12:25:30.976Z,17.50
2022-12-25T12:28:05.271Z,16.77
2022-12-25T12:30:35.432Z,21.50
2022-12-25T12:33:05.060Z,15.17
2022-12-25T12:35:37.076Z,12.80
2022-12-25T12:38:11.845Z,17.47
2022-12-25T12:40:58.655Z,17.00
2022-12-25T12:43:42.095Z,13.07
2022-12-25T12:46:31.027Z,17.70
2022-12-25T12:49:22.203Z,10.07
2022-12-25T12:51:49.632Z,10.30
2022-12-25T12:54:21.239Z,16.10
2022-12-25T12:57:03.173Z,6.37
2022-12-25T12:59:43.314Z,32.30
2022-12-25T13:02:48.625Z,11.80
2022-12-25T13:05:22.863Z,23.97
2022-12-25T13:08:21.286Z,13.97
2022-12-25T13:11:03.069Z,12.30
2022-12-25T13:13:51.448Z,24.60
2022-12-25T13:16:33.174Z,13.93
2022-12-25T13:19:06.017Z,10.77
2022-12-25T13:21:33.321Z,9.10
2022-12-25T13:24:02.444Z,12.90
2022-12-25T13:26:30.150Z,20.07
2022-12-25T13:28:56.870Z,12.93
2022-12-25T13:31:29.201Z,13.23
2022-12-25T13:34:00.748Z,13.03
2022-12-25T13:36:29.950Z,21.03
2022-12-25T13:38:59.151Z,10.37
2022-12-25T13:41:49.299Z,5.70
2022-12-25T13:44:22.978Z,15.90
2022-12-25T13:46:49.813Z,10.67
2022-12-25T13:49:18.662Z,10.90
2022-12-25T13:51:46.247Z,12.27
2022-12-25T13:54:14.530Z,13.93
2022-12-25T13:56:50.514Z,10.27
2022-12-25T13:59:19.775Z,16.40
2022-12-25T14:01:47.669Z,9.93
2022-12-25T14:04:20.663Z,13.67
2022-12-25T14:06:48.184Z,16.27
2022-12-25T14:09:15.742Z,12.70
2022-12-25T14:11:48.381Z,10.20
2022-12-25T14:14:22.159Z,13.43
2022-12-25T14:16:50.951Z,11.43
2022-12-25T14:19:25.284Z,9.00
2022-12-25T14:22:00.643Z,13.80
2022-12-25T14:24:29.889Z,16.30
2022-12-25T14:27:02.096Z,17.40
2022-12-25T14:29:35.578Z,16.57
2022-12-25T14:32:07.813Z,12.57
2022-12-25T14:34:34.602Z,11.60
2022-12-25T14:37:03.309Z,13.87
2022-12-25T14:39:32.496Z,13.03
2022-12-25T14:42:01.691Z,13.20
2022-12-25T14:44:33.950Z,13.40
2022-12-25T14:47:06.261Z,18.10
2022-12-25T14:49:33.043Z,12.33
2022-12-25T14:51:59.632Z,11.60
2022-12-25T14:54:26.764Z,15.50
2022-12-25T14:56:56.118Z,15.97
2022-12-25T14:59:26.979Z,12.77
2022-12-25T15:02:01.113Z,14.20
2022-12-25T15:04:29.528Z,12.93
2022-12-25T15:07:06.814Z,11.43
2022-12-25T15:09:33.525Z,11.77
2022-12-25T15:12:00.104Z,10.60
2022-12-25T15:14:27.376Z,9.87
2022-12-25T15:16:56.848Z,16.40
2022-12-25T15:19:36.587Z,12.10
2022-12-25T15:22:04.293Z,20.53
2022-12-25T15:24:30.821Z,16.37
2022-12-25T15:27:00.726Z,17.03
2022-12-25T15:30:00.140Z,9.63
2022-12-25T15:32:17.983Z,12.27
2022-12-25T15:34:47.060Z,9.90
2022-12-25T15:37:14.155Z,10.97
2022-12-25T15:39:41.123Z,12.50
2022-12-25T15:42:16.866Z,8.40
2022-12-25T15:44:44.547Z,12.03
2022-12-25T15:47:12.951Z,13.40
2022-12-25T15:49:39.573Z,15.53
2022-12-25T15:52:09.796Z,10.37
2022-12-25T15:54:37.166Z,8.50
2022-12-25T15:57:06.303Z,9.37
2022-12-25T15:59:33.481Z,11.50
2022-12-25T16:02:01.746Z,14.00
2022-12-25T16:04:31.092Z,8.03
2022-12-25T16:06:59.243Z,8.23
2022-12-25T16:09:27.442Z,8.50
2022-12-25T16:11:54.022Z,9.53
2022-12-25T16:14:21.714Z,11.87
2022-12-25T16:16:48.359Z,6.50
2022-12-25T16:19:15.056Z,10.03
2022-12-25T16:21:44.837Z,12.80
2022-12-25T16:24:11.517Z,11.50
2022-12-25T16:26:38.116Z,9.00
2022-12-25T16:29:07.609Z,8.50
2022-12-25T16:31:36.109Z,12.17
2022-12-25T16:34:03.481Z,10.00
2022-12-25T16:36:30.321Z,11.73
2022-12-25T16:38:57.002Z,10.70
2022-12-25T16:41:23.865Z,7.37
2022-12-25T16:43:50.464Z,12.70
2022-12-25T16:46:20.512Z,8.97
2022-12-25T16:48:47.663Z,11.80
2022-12-25T16:51:17.693Z,7.30
2022-12-25T16:53:44.684Z,7.20
2022-12-25T16:56:16.494Z,6.63
2022-12-25T16:58:46.493Z,10.60
2022-12-25T17:01:15.848Z,11.13
2022-12-25T17:03:43.051Z,12.93
2022-12-25T17:06:14.622Z,12.33
2022-12-25T17:08:41.984Z,10.90
2022-12-25T17:11:09.265Z,12.37
2022-12-25T17:13:35.924Z,8.37
2022-12-25T17:16:19.636Z,9.33
2022-12-25T17:18:46.248Z,8.37
2022-12-25T17:21:14.534Z,9.07
2022-12-25T17:23:41.120Z,21.90
2022-12-25T17:26:07.702Z,11.60
2022-12-25T17:28:34.708Z,7.67
2022-12-25T17:31:03.179Z,9.47
2022-12-25T17:33:30.810Z,11.93
2022-12-25T17:36:06.227Z,9.00
2022-12-25T17:38:33.995Z,9.37
2022-12-25T17:41:02.516Z,10.33
2022-12-25T17:43:29.244Z,19.40
2022-12-25T17:45:56.351Z,9.77
2022-12-25T17:48:22.895Z,15.50
2022-12-25T17:50:49.442Z,17.50
2022-12-25T17:53:15.992Z,14.10
2022-12-25T17:55:42.685Z,10.17
2022-12-25T17:58:09.253Z,9.77
2022-12-25T18:00:36.751Z,10.60
2022-12-25T18:03:10.922Z,8.13
2022-12-25T18:05:38.826Z,8.63
2022-12-25T18:08:05.924Z,11.07
2022-12-25T18:10:39.032Z,13.63
2022-12-25T18:13:06.323Z,10.83
2022-12-25T18:15:37.125Z,7.50
2022-12-25T18:18:04.809Z,12.50
2022-12-25T18:20:37.718Z,6.80
2022-12-25T18:23:06.697Z,9.00
2022-12-25T18:25:33.630Z,7.43
2022-12-25T18:28:02.680Z,9.07
2022-12-25T18:30:30.016Z,7.23
2022-12-25T18:32:56.631Z,8.40
2022-12-25T18:35:28.868Z,9.23
2022-12-25T18:37:55.953Z,11.73
2022-12-25T18:40:22.807Z,9.80
2022-12-25T18:42:52.302Z,8.60
2022-12-25T18:45:21.447Z,9.53
2022-12-25T18:47:48.220Z,7.60
2022-12-25T18:50:15.776Z,9.17
2022-12-25T18:52:49.455Z,14.23
2022-12-25T18:55:17.917Z,12.37
2022-12-25T18:57:44.480Z,11.53
2022-12-25T19:00:11.435Z,9.57
2022-12-25T19:02:38.082Z,8.20
2022-12-25T19:05:05.972Z,12.63
2022-12-25T19:07:32.597Z,10.20
2022-12-25T19:09:59.117Z,10.73
2022-12-25T19:12:25.699Z,13.67
2022-12-25T19:14:52.793Z,13.73
2022-12-25T19:17:19.979Z,14.10
2022-12-25T19:19:46.663Z,20.60
2022-12-25T19:22:13.325Z,17.53
2022-12-25T19:24:40.068Z,22.13
2022-12-25T19:27:06.604Z,14.57
2022-12-25T19:29:33.651Z,15.00
2022-12-25T19:32:01.004Z,12.83
2022-12-25T19:34:28.066Z,12.60
2022-12-25T19:36:54.798Z,13.67
2022-12-25T19:39:21.396Z,15.17
2022-12-25T19:41:48.093Z,19.23
2022-12-25T19:44:15.376Z,18.10
2022-12-25T19:46:42.254Z,18.40
2022-12-25T19:49:13.128Z,16.73
2022-12-25T19:51:44.577Z,22.33
2022-12-25T19:54:14.623Z,33.60
2022-12-25T19:56:42.269Z,28.50
2022-12-25T19:59:10.180Z,43.60
2022-12-25T20:01:38.692Z,48.17
2022-12-25T20:04:08.609Z,70.70
2022-12-25T20:06:38.084Z,122.77
2022-12-25T20:09:08.273Z,305.30
2022-12-25T20:14:23.958Z,65.63
2022-12-25T20:16:50.978Z,36.57
2022-12-25T20:19:17.534Z,34.50
2022-12-25T20:21:44.110Z,67.30
2022-12-25T20:24:11.301Z,95.80
2022-12-25T20:26:38.769Z,38.93
2022-12-25T20:29:05.926Z,24.27
2022-12-25T20:31:34.667Z,21.60
2022-12-25T20:34:06.762Z,70.83
2022-12-25T20:36:37.354Z,81.70
2022-12-25T20:39:10.213Z,196.80
2022-12-25T20:41:38.031Z,350.30
2022-12-25T20:44:06.573Z,130.27
2022-12-25T20:46:33.532Z,33.07
2022-12-25T20:49:01.510Z,21.63
2022-12-25T20:51:28.121Z,18.70
2022-12-25T20:53:55.486Z,32.50
2022-12-25T20:56:25.092Z,49.87
2022-12-25T20:58:58.164Z,27.00
2022-12-25T21:01:25.229Z,20.30
2022-12-25T21:03:52.536Z,49.90
2022-12-25T21:06:20.156Z,34.63
2022-12-25T21:08:47.367Z,19.33
2022-12-25T21:11:15.900Z,16.03
2022-12-25T21:13:45.149Z,29.77
2022-12-25T21:16:15.387Z,23.80
2022-12-25T21:18:42.966Z,18.53
2022-12-25T21:21:09.651Z,20.10
2022-12-25T21:23:38.040Z,27.70
2022-12-25T21:26:12.044Z,30.73
2022-12-25T21:28:39.121Z,25.20
2022-12-25T21:31:07.563Z,41.13
2022-12-25T21:33:52.648Z,39.63
2022-12-25T21:36:30.580Z,36.30
2022-12-25T21:38:58.665Z,76.83
2022-12-25T21:41:26.708Z,106.00
2022-12-25T21:43:53.898Z,91.40
2022-12-25T21:46:20.689Z,134.17
2022-12-25T21:48:47.861Z,97.17
2022-12-25T21:51:35.672Z,58.80
2022-12-25T21:54:03.425Z,79.50
2022-12-25T21:56:39.982Z,27.53
2022-12-25T21:59:10.714Z,37.20
2022-12-25T22:01:38.074Z,55.57
2022-12-25T22:04:07.239Z,47.93
2022-12-25T22:06:53.766Z,32.97
2022-12-25T22:09:21.793Z,48.00
2022-12-25T22:12:07.827Z,66.70
2022-12-25T22:14:55.296Z,52.27
2022-12-25T22:17:48.043Z,66.70
2022-12-25T22:20:18.849Z,19.10
2022-12-25T22:22:47.169Z,57.00
2022-12-25T22:25:14.693Z,30.70
2022-12-25T22:27:43.830Z,30.93
2022-12-25T22:30:15.149Z,33.77
2022-12-25T22:32:42.431Z,14.30
2022-12-25T22:35:09.642Z,39.00
2022-12-25T22:37:37.873Z,46.77
2022-12-25T22:40:06.852Z,32.77
2022-12-25T22:42:33.687Z,70.67
2022-12-25T22:45:00.205Z,49.30
2022-12-25T22:47:26.773Z,47.80
2022-12-25T22:49:53.333Z,79.40
2022-12-25T22:52:20.241Z,48.50
2022-12-25T22:54:46.767Z,41.47
2022-12-25T22:57:13.311Z,63.00
2022-12-25T22:59:39.844Z,47.43
2022-12-25T23:02:06.702Z,52.03
2022-12-25T23:04:33.360Z,53.17
2022-12-25T23:06:59.920Z,42.00
2022-12-25T23:09:29.284Z,51.10
2022-12-25T23:11:58.041Z,49.90
2022-12-25T23:14:41.502Z,35.63
2022-12-25T23:17:31.211Z,49.47
2022-12-25T23:20:18.250Z,60.40
2022-12-25T23:23:04.512Z,71.23
2022-12-25T23:25:49.742Z,68.03
2022-12-25T23:28:36.277Z,75.17
2022-12-25T23:31:02.866Z,56.97
2022-12-25T23:33:29.490Z,93.17
2022-12-25T23:35:56.341Z,83.30
2022-12-25T23:38:23.267Z,64.80
2022-12-25T23:40:50.156Z,61.03
2022-12-25T23:43:16.783Z,73.47
2022-12-25T23:45:43.320Z,92.10
2022-12-25T23:48:09.817Z,87.57
2022-12-25T23:50:37.445Z,72.83
2022-12-25T23:53:03.958Z,140.13
2022-12-25T23:55:30.501Z,137.93
2022-12-25T23:57:57.022Z,108.10
